SLSA/SBL METAR and TAF weather

Enter ICAO airport designator
Station Type Date Time Source
SLSA METAR 2020/10/29 16:00 UTC NOAA

SLSA 291600Z 33014KT 8000 VCSH SCT020 FEW023CB BKN070 29/23 Q1008


Station Type Date Time Source
SLSA Decoded METAR 2020/10/29 16:00 UTC NOAA

Santa Ana, Bolivia (SLSA) 13-46S 065-26W
Oct 29, 2020 - 12:00 PM EDT / 2020.10.29 1600 UTC
Wind: from the NNW (330 degrees) at 16 MPH (14 KT):0
Visibility: 4 mile(s):0
Sky conditions: mostly cloudy
Weather: showers in the vicinity; Cumulonimbus clouds observed
Temperature: 84 F (29 C)
Dew Point: 73 F (23 C)
Relative Humidity: 70%
Pressure (altimeter): 29.77 in. Hg (1008 hPa)
ob: SLSA 291600Z 33014KT 8000 VCSH SCT020 FEW023CB BKN070 29/23 Q1008
cycle: 16

Station Type Date Time Source
SLSA TAF 2009/01/07 11:00 UTC NOAA

METAR SLSA 071100Z 00000KT 9999 FEW020 BKN080 26/24 Q1009

Example: see airport list